Time;durP1;ratioP1;P1;durP2;ratioP2;P2;SDS_P1;SDS_P2;PMS_P1;PMS_P2;Temp;Humidity;BMP_temperature;BMP_pressure;BME280_temperature;BME280_humidity;BME280_pressure;Samples;Min_cycle;Max_cycle;Signal;HPM_P1;HPM_P2
2022/03/28 00:00:07;;;;;;;23.33;9.65;;;;;;;4.36;66.55;91826.16;5012492;28;20458;-64
2022/03/28 00:02:33;;;;;;;21.70;10.38;;;;;;;4.35;66.52;91829.84;5012610;28;20048;-64
2022/03/28 00:04:59;;;;;;;19.77;9.05;;;;;;;4.28;66.94;91831.09;5012631;28;20034;-64
2022/03/28 00:07:24;;;;;;;15.82;8.10;;;;;;;4.28;67.07;91826.63;5012528;28;20042;-64
2022/03/28 00:09:50;;;;;;;15.88;8.05;;;;;;;4.29;66.83;91833.47;5012432;28;20129;-64
2022/03/28 00:12:15;;;;;;;16.90;7.93;;;;;;;4.32;66.42;91822.44;5012455;28;20037;-64
2022/03/28 00:14:40;;;;;;;18.73;8.57;;;;;;;4.28;66.60;91823.19;5012442;28;20507;-64
2022/03/28 00:17:07;;;;;;;13.10;7.53;;;;;;;4.32;66.65;91827.69;5012375;28;20072;-64
2022/03/28 00:19:32;;;;;;;14.38;6.95;;;;;;;4.33;66.62;91820.59;5012269;28;20492;-64
2022/03/28 00:21:58;;;;;;;11.55;6.65;;;;;;;4.37;66.40;91816.41;5012184;28;20034;-64
2022/03/28 00:24:23;;;;;;;12.30;6.90;;;;;;;4.37;66.20;91805.88;5012245;28;20504;-64
2022/03/28 00:26:49;;;;;;;13.93;8.40;;;;;;;4.29;66.61;91807.13;5012282;28;20034;-64
2022/03/28 00:29:14;;;;;;;15.18;7.30;;;;;;;4.27;66.88;91803.97;5012118;28;20515;-64
2022/03/28 00:31:40;;;;;;;12.75;7.40;;;;;;;4.26;66.84;91797.09;5011978;28;20111;-65
2022/03/28 00:34:07;;;;;;;14.63;7.35;;;;;;;4.31;66.87;91794.50;5011858;28;20050;-65
2022/03/28 00:36:32;;;;;;;17.92;7.10;;;;;;;4.32;67.28;91785.56;5010722;28;20046;-64
2022/03/28 00:38:58;;;;;;;15.65;7.50;;;;;;;4.36;67.26;91791.13;5011919;28;20109;-64
2022/03/28 00:41:23;;;;;;;14.93;7.45;;;;;;;4.32;67.42;91782.13;5011135;28;20121;-64
2022/03/28 00:43:54;;;;;;;12.70;7.70;;;;;;;4.31;67.80;91781.34;5010479;28;20037;-64
2022/03/28 00:46:20;;;;;;;14.38;7.07;;;;;;;4.25;68.01;91777.03;5011813;28;20514;-65
2022/03/28 00:48:45;;;;;;;13.98;7.28;;;;;;;4.33;68.17;91779.25;5011884;28;20103;-64
2022/03/28 00:51:11;;;;;;;18.95;7.60;;;;;;;4.34;68.44;91778.19;5011728;28;20095;-65
2022/03/28 00:53:38;;;;;;;13.35;7.05;;;;;;;4.23;68.84;91773.88;5011799;28;20040;-64
2022/03/28 00:56:03;;;;;;;12.52;7.43;;;;;;;4.21;69.44;91774.13;5011681;28;20042;-64
2022/03/28 00:58:29;;;;;;;12.43;7.38;;;;;;;4.07;70.25;91772.94;5011575;28;20100;-64
2022/03/28 01:00:54;;;;;;;15.45;8.30;;;;;;;4.04;70.66;91773.44;5010270;28;20585;-65
2022/03/28 01:03:20;;;;;;;12.65;7.93;;;;;;;3.90;71.15;91764.31;5011614;28;20069;-65
2022/03/28 01:05:45;;;;;;;12.60;7.43;;;;;;;3.89;71.75;91768.00;5011524;28;20117;-65
2022/03/28 01:08:13;;;;;;;14.25;7.93;;;;;;;3.87;71.89;91756.94;5011464;28;20060;-65
2022/03/28 01:10:41;;;;;;;13.15;8.88;;;;;;;3.75;72.73;91764.16;5011416;28;20100;-65
2022/03/28 01:13:06;;;;;;;12.15;7.38;;;;;;;3.65;74.03;91767.50;5011554;28;20037;-64
2022/03/28 01:15:32;;;;;;;13.95;8.05;;;;;;;3.60;75.31;91752.41;5011430;28;20034;-64
2022/03/28 01:18:06;;;;;;;17.52;8.15;;;;;;;3.52;76.85;91754.72;5011297;28;20121;-64
2022/03/28 01:20:35;;;;;;;15.35;8.30;;;;;;;3.32;78.88;91757.09;5011317;28;20025;-65
2022/03/28 01:23:01;;;;;;;16.33;8.45;;;;;;;3.19;81.42;91753.78;5011356;28;20112;-64
2022/03/28 01:25:29;;;;;;;15.30;9.25;;;;;;;3.11;83.85;91759.44;5011310;28;20044;-64
2022/03/28 01:27:56;;;;;;;16.63;9.38;;;;;;;3.11;85.45;91759.44;5011291;28;20026;-64
2022/03/28 01:30:22;;;;;;;20.27;9.38;;;;;;;3.13;86.63;91765.25;5011404;28;20030;-64
2022/03/28 01:32:49;;;;;;;16.17;9.27;;;;;;;3.13;87.33;91777.59;5011065;28;20512;-64
2022/03/28 01:35:35;;;;;;;21.27;8.73;;;;;;;3.10;87.99;91772.84;5011488;28;20550;-64
2022/03/28 01:38:04;;;;;;;15.35;8.80;;;;;;;3.06;88.50;91775.16;5011098;28;20663;-64
2022/03/28 01:40:30;;;;;;;18.38;10.48;;;;;;;2.96;90.40;91764.50;5011063;28;20064;-64
2022/03/28 01:42:57;;;;;;;19.50;11.25;;;;;;;2.97;91.39;91768.72;5011143;28;20030;-64
2022/03/28 01:45:22;;;;;;;18.52;10.95;;;;;;;3.00;92.19;91763.78;5011154;28;20198;-64
2022/03/28 01:47:48;;;;;;;28.00;11.60;;;;;;;3.08;91.71;91764.41;5011104;28;20503;-64
2022/03/28 01:50:14;;;;;;;23.80;12.32;;;;;;;3.18;90.42;91762.72;5011005;28;20033;-64
2022/03/28 01:52:40;;;;;;;23.40;10.25;;;;;;;3.15;89.53;91767.63;5011322;28;20519;-64
2022/03/28 01:55:07;;;;;;;17.58;9.05;;;;;;;3.15;89.04;91768.44;5015018;28;20030;-64
2022/03/28 01:57:32;;;;;;;19.27;11.43;;;;;;;3.17;89.26;91768.22;5015012;28;20053;-64
2022/03/28 01:59:59;;;;;;;27.60;13.75;;;;;;;3.11;90.39;91772.59;5014715;28;20461;-64
2022/03/28 02:02:25;;;;;;;21.65;11.02;;;;;;;3.12;90.85;91760.25;5014913;28;20026;-64
2022/03/28 02:04:50;;;;;;;30.15;11.60;;;;;;;3.07;91.48;91752.28;5014904;28;20507;-64
2022/03/28 02:07:17;;;;;;;24.75;11.95;;;;;;;3.11;91.14;91754.19;5014899;28;20109;-64
2022/03/28 02:09:43;;;;;;;17.33;11.20;;;;;;;3.12;91.31;91761.03;5014664;28;20463;-64
2022/03/28 02:12:09;;;;;;;20.13;10.55;;;;;;;2.95;92.29;91762.91;5014733;28;20022;-64
2022/03/28 02:14:34;;;;;;;19.80;11.27;;;;;;;2.79;94.32;91768.97;5014619;28;20518;-64
2022/03/28 02:16:59;;;;;;;19.45;10.82;;;;;;;2.69;95.26;91765.19;5014690;28;20042;-64
2022/03/28 02:19:25;;;;;;;19.70;11.43;;;;;;;2.60;98.61;91763.19;5014435;28;20416;-64
2022/03/28 02:21:50;;;;;;;21.85;11.02;;;;;;;2.55;99.04;91761.28;5014594;28;20038;-64
2022/03/28 02:24:16;;;;;;;22.15;12.05;;;;;;;2.43;99.02;91747.44;5014511;28;20425;-63
2022/03/28 02:26:41;;;;;;;22.05;11.00;;;;;;;2.65;98.99;91761.41;5014438;28;20037;-64
2022/03/28 02:29:07;;;;;;;21.48;11.48;;;;;;;2.72;97.81;91766.53;5014369;28;20025;-64
2022/03/28 02:31:32;;;;;;;20.20;11.55;;;;;;;2.83;96.79;91759.56;5014243;28;20022;-64
2022/03/28 02:33:58;;;;;;;23.52;13.10;;;;;;;2.78;97.41;91759.50;5014063;28;20050;-64
2022/03/28 02:36:23;;;;;;;22.35;11.15;;;;;;;2.65;97.25;91758.78;5014183;28;20495;-64
2022/03/28 02:38:48;;;;;;;17.10;11.13;;;;;;;2.69;97.08;91759.94;5014185;28;20022;-64
2022/03/28 02:41:14;;;;;;;21.08;11.68;;;;;;;2.83;95.82;91762.19;5014109;28;20033;-64
2022/03/28 02:43:39;;;;;;;26.52;12.68;;;;;;;2.88;95.18;91768.34;5014154;28;20056;-64
2022/03/28 02:46:05;;;;;;;24.52;10.77;;;;;;;2.86;95.09;91769.63;5014063;28;20116;-64
2022/03/28 02:48:30;;;;;;;17.65;9.52;;;;;;;2.89;95.36;91766.50;5014303;28;20033;-64
2022/03/28 02:50:56;;;;;;;19.15;9.65;;;;;;;2.90;95.04;91768.88;5013891;28;20029;-64
2022/03/28 02:53:22;;;;;;;16.67;10.13;;;;;;;2.85;94.44;91768.03;5014195;28;20037;-64
2022/03/28 02:55:47;;;;;;;21.08;10.05;;;;;;;2.85;94.35;91760.16;5013904;28;20030;-64
2022/03/28 02:58:12;;;;;;;29.35;10.20;;;;;;;2.85;94.09;91768.03;5013756;28;20519;-64
2022/03/28 03:00:38;;;;;;;27.67;9.18;;;;;;;2.78;93.64;91757.66;5013723;28;20026;-64
2022/03/28 03:03:03;;;;;;;19.58;8.75;;;;;;;2.94;92.63;91771.81;5013758;28;20034;-64
2022/03/28 03:05:29;;;;;;;16.73;8.30;;;;;;;2.97;91.54;91776.59;5012836;28;20030;-64
2022/03/28 03:10:22;;;;;;;14.45;8.65;;;;;;;3.04;90.16;91771.97;5137275;23;20109;-61
2022/03/28 03:12:47;;;;;;;20.60;9.88;;;;;;;2.93;90.71;91760.50;4994282;28;20034;-61
2022/03/28 03:15:12;;;;;;;17.23;9.48;;;;;;;2.96;90.74;91767.13;4994256;28;20041;-61
2022/03/28 03:17:38;;;;;;;14.35;9.05;;;;;;;2.97;90.61;91760.81;4994151;28;20033;-61
2022/03/28 03:20:05;;;;;;;19.90;9.32;;;;;;;3.10;90.26;91763.13;4993971;28;20061;-61
2022/03/28 03:22:31;;;;;;;23.65;10.07;;;;;;;3.11;89.59;91769.16;4994048;28;20042;-61
2022/03/28 03:24:56;;;;;;;13.18;8.35;;;;;;;2.99;89.45;91772.69;4994050;28;20084;-61
2022/03/28 03:27:22;;;;;;;14.50;8.23;;;;;;;3.09;88.66;91774.66;4993986;28;20034;-61
2022/03/28 03:29:47;;;;;;;13.77;8.23;;;;;;;3.13;87.99;91773.13;4993887;28;20510;-61
2022/03/28 03:32:13;;;;;;;19.35;8.70;;;;;;;3.12;87.99;91776.00;4993886;28;20034;-61
2022/03/28 03:34:39;;;;;;;13.20;8.07;;;;;;;3.21;86.74;91778.00;4993885;28;20033;-61
2022/03/28 03:37:06;;;;;;;14.82;9.35;;;;;;;3.20;86.28;91784.28;4993848;28;20038;-61
2022/03/28 03:39:32;;;;;;;13.95;7.32;;;;;;;2.99;86.86;91766.63;4993490;28;20026;-61
2022/03/28 03:41:57;;;;;;;16.35;7.63;;;;;;;2.90;87.55;91783.88;4993597;28;20101;-60
2022/03/28 03:44:23;;;;;;;15.95;7.70;;;;;;;2.79;88.84;91782.13;4993629;28;20042;-61
2022/03/28 03:46:48;;;;;;;16.10;8.45;;;;;;;2.70;89.91;91772.03;4993565;28;20026;-61
2022/03/28 03:49:16;;;;;;;20.45;9.05;;;;;;;2.84;89.88;91782.19;4992171;28;20558;-61
2022/03/28 03:51:41;;;;;;;19.70;8.07;;;;;;;2.89;89.28;91784.91;4993522;28;20515;-62
2022/03/28 03:54:07;;;;;;;14.05;7.68;;;;;;;2.89;88.83;91787.53;4993475;28;20034;-60
2022/03/28 03:56:32;;;;;;;15.63;8.02;;;;;;;2.88;87.87;91778.06;4993393;28;20041;-61
2022/03/28 03:58:58;;;;;;;19.65;7.57;;;;;;;2.84;87.62;91782.19;4993278;28;20026;-61
2022/03/28 04:01:26;;;;;;;17.30;7.47;;;;;;;2.93;86.82;91778.13;4993261;28;20479;-61
2022/03/28 04:03:52;;;;;;;18.92;8.25;;;;;;;2.99;85.84;91782.41;4993267;28;20064;-61
2022/03/28 04:06:17;;;;;;;15.45;8.23;;;;;;;3.04;85.75;91779.88;4993202;28;20491;-61
2022/03/28 04:08:43;;;;;;;17.48;8.50;;;;;;;3.10;84.97;91789.41;4992796;28;20050;-61
2022/03/28 04:11:08;;;;;;;33.10;16.55;;;;;;;3.12;84.87;91786.53;4993024;28;20069;-60
2022/03/28 04:13:35;;;;;;;21.33;9.15;;;;;;;3.12;84.46;91787.31;4993027;28;20030;-61
2022/03/28 04:16:01;;;;;;;20.08;11.05;;;;;;;3.09;84.41;91785.19;4992927;28;20030;-62
2022/03/28 04:18:27;;;;;;;27.55;10.50;;;;;;;3.10;84.28;91789.41;4992709;28;20033;-62
2022/03/28 04:20:53;;;;;;;18.30;9.23;;;;;;;3.18;83.62;91781.09;4992870;28;20033;-62
2022/03/28 04:23:19;;;;;;;24.95;9.93;;;;;;;3.15;83.12;91778.94;4992997;28;20057;-62
2022/03/28 04:25:45;;;;;;;25.17;9.18;;;;;;;3.13;82.75;91783.66;4992774;28;20405;-62
2022/03/28 04:28:10;;;;;;;25.80;9.60;;;;;;;3.21;81.97;91782.47;4992612;28;20037;-62
2022/03/28 04:30:36;;;;;;;21.70;8.50;;;;;;;3.36;80.87;91787.13;4992648;28;20053;-62
2022/03/28 04:33:02;;;;;;;18.85;8.80;;;;;;;3.43;80.76;91785.88;4992673;28;20031;-62
2022/03/28 04:35:28;;;;;;;27.70;12.30;;;;;;;3.46;80.73;91790.66;4992932;28;20022;-64
2022/03/28 04:37:54;;;;;;;73.15;27.65;;;;;;;3.50;81.00;91786.53;4992583;28;20407;-64
2022/03/28 04:40:20;;;;;;;36.03;11.88;;;;;;;3.62;80.33;91789.00;4992314;28;20030;-64
2022/03/28 04:42:46;;;;;;;36.47;12.15;;;;;;;3.67;79.38;91783.03;4992531;28;20042;-63
2022/03/28 04:45:11;;;;;;;25.92;11.35;;;;;;;3.92;77.93;91780.66;4992555;28;20085;-63
2022/03/28 04:47:37;;;;;;;23.88;9.43;;;;;;;4.12;75.67;91788.00;4991144;28;20415;-64
2022/03/28 04:50:04;;;;;;;24.27;11.82;;;;;;;4.13;75.61;91787.75;4992362;28;20440;-64
2022/03/28 04:52:29;;;;;;;26.15;10.32;;;;;;;4.21;75.21;91781.22;4991693;28;20516;-64
2022/03/28 04:54:55;;;;;;;30.10;10.20;;;;;;;4.25;74.48;91784.94;4992087;28;20061;-64
2022/03/28 04:57:20;;;;;;;17.77;8.82;;;;;;;4.22;73.01;91780.19;4992215;28;20026;-63
2022/03/28 04:59:46;;;;;;;35.95;10.18;;;;;;;4.44;71.94;91786.19;4992017;28;20018;-63
2022/03/28 05:02:11;;;;;;;16.50;9.15;;;;;;;5.07;70.00;91787.22;4992146;28;20034;-64
2022/03/28 05:04:37;;;;;;;25.63;10.10;;;;;;;7.00;63.39;91788.91;4992107;28;20030;-63
2022/03/28 05:07:02;;;;;;;29.40;9.63;;;;;;;7.80;59.10;91785.31;4992190;28;20173;-64
2022/03/28 05:09:28;;;;;;;28.80;9.35;;;;;;;7.43;58.56;91787.53;4991756;28;20058;-64
2022/03/28 05:11:53;;;;;;;28.45;10.40;;;;;;;6.50;60.79;91785.97;4992010;28;20027;-63
2022/03/28 05:14:19;;;;;;;21.92;10.63;;;;;;;5.91;62.92;91790.84;4991991;28;20022;-63
2022/03/28 05:16:45;;;;;;;17.50;10.32;;;;;;;5.94;62.66;91785.81;4992020;28;20049;-64
2022/03/28 05:19:10;;;;;;;56.70;12.10;;;;;;;7.86;59.23;91785.28;4991859;28;20085;-64
2022/03/28 05:21:36;;;;;;;23.70;7.43;;;;;;;10.01;53.21;91781.56;4991960;28;20050;-63
2022/03/28 05:24:02;;;;;;;34.58;9.32;;;;;;;12.46;47.57;91775.81;4991994;28;20031;-64
2022/03/28 05:26:27;;;;;;;83.90;44.40;;;;;;;14.42;43.63;91777.78;4991923;28;20034;-64
2022/03/28 05:28:53;;;;;;;12.60;6.15;;;;;;;14.47;41.14;91775.75;4991357;28;20033;-64
2022/03/28 05:31:19;;;;;;;24.63;8.52;;;;;;;13.88;42.33;91785.09;4991833;28;20496;-64
2022/03/28 05:33:44;;;;;;;30.63;10.90;;;;;;;15.09;40.83;91780.09;4992150;28;20030;-64
2022/03/28 05:36:10;;;;;;;26.23;7.63;;;;;;;17.17;37.46;91777.56;4991858;28;20023;-64
2022/03/28 05:38:36;;;;;;;40.85;10.18;;;;;;;18.18;35.63;91778.91;4991548;28;20125;-65
2022/03/28 05:41:04;;;;;;;40.33;11.80;;;;;;;16.58;36.79;91774.91;4991803;28;20030;-64
2022/03/28 05:43:30;;;;;;;33.58;9.75;;;;;;;15.22;39.12;91774.59;4991671;28;20034;-66
2022/03/28 05:45:55;;;;;;;25.92;7.70;;;;;;;16.38;37.50;91774.50;4991738;28;20037;-65
2022/03/28 05:48:21;;;;;;;47.15;13.25;;;;;;;16.85;37.16;91771.78;4991467;28;20049;-67
2022/03/28 05:50:47;;;;;;;76.50;28.60;;;;;;;18.61;35.15;91766.00;4991649;28;20027;-65
2022/03/28 05:53:13;;;;;;;32.60;10.68;;;;;;;19.48;33.96;91771.78;4991706;28;20105;-64
2022/03/28 05:55:43;;;;;;;29.63;10.85;;;;;;;20.93;31.93;91768.63;4991562;28;20037;-65
2022/03/28 05:58:09;;;;;;;26.67;10.35;;;;;;;21.77;30.67;91762.72;4991458;28;20481;-65
2022/03/28 06:00:36;;;;;;;32.88;12.52;;;;;;;22.23;30.46;91771.00;4991444;28;20137;-65
2022/03/28 06:03:01;;;;;;;25.75;12.38;;;;;;;21.48;30.57;91780.34;4991415;28;20473;-65
2022/03/28 06:05:27;;;;;;;23.20;9.57;;;;;;;22.16;29.66;91768.94;4991353;28;20037;-65
2022/03/28 06:07:52;;;;;;;25.13;11.07;;;;;;;22.68;28.77;91767.53;4991438;28;20113;-65
2022/03/28 06:10:18;;;;;;;20.40;11.43;;;;;;;24.01;27.62;91762.88;4991201;28;20055;-63
2022/03/28 06:12:43;;;;;;;37.97;13.43;;;;;;;24.67;27.12;91767.47;4991485;28;20488;-63
2022/03/28 06:15:09;;;;;;;44.35;14.82;;;;;;;26.04;25.46;91764.56;4991380;28;20113;-64
2022/03/28 06:17:35;;;;;;;44.22;14.82;;;;;;;27.33;25.05;91769.09;4991510;28;20576;-64
2022/03/28 06:20:04;;;;;;;33.25;14.00;;;;;;;28.57;23.83;91760.56;4991344;28;20480;-64
2022/03/28 06:22:30;;;;;;;35.75;19.95;;;;;;;28.46;24.21;91765.31;4991347;28;20093;-63
2022/03/28 06:24:56;;;;;;;38.67;16.77;;;;;;;26.72;25.05;91765.53;4991359;28;20031;-66
2022/03/28 06:27:24;;;;;;;53.50;21.08;;;;;;;24.65;28.15;91764.34;4991259;28;20029;-65
2022/03/28 06:29:52;;;;;;;69.65;33.88;;;;;;;25.08;27.16;91773.66;4991084;28;20038;-65
2022/03/28 06:32:19;;;;;;;117.22;30.75;;;;;;;25.90;27.50;91766.06;4991189;28;20026;-63
2022/03/28 06:34:44;;;;;;;50.67;21.20;;;;;;;26.76;25.34;91758.13;4991175;28;20042;-64
2022/03/28 06:37:10;;;;;;;73.82;51.63;;;;;;;28.65;24.04;91766.75;4991284;28;20038;-64
2022/03/28 06:39:36;;;;;;;31.60;17.77;;;;;;;30.15;23.02;91771.06;4991194;28;20030;-65
2022/03/28 06:42:03;;;;;;;63.17;31.83;;;;;;;29.02;23.45;91773.59;4994731;28;20524;-64
2022/03/28 06:44:30;;;;;;;60.25;24.20;;;;;;;28.28;24.47;91770.88;4994666;28;20467;-64
2022/03/28 06:46:56;;;;;;;58.40;23.80;;;;;;;29.49;23.69;91775.59;4994755;28;20026;-64
2022/03/28 06:49:21;;;;;;;44.80;22.90;;;;;;;29.50;23.93;91776.34;4994516;28;20104;-65
2022/03/28 06:51:47;;;;;;;122.30;28.17;;;;;;;25.94;27.05;91775.03;4994653;28;20037;-64
2022/03/28 06:54:14;;;;;;;62.50;35.33;;;;;;;24.58;29.15;91775.16;4994506;28;20038;-64
2022/03/28 06:56:41;;;;;;;77.95;32.10;;;;;;;25.71;28.03;91779.94;4994536;28;20062;-64
2022/03/28 06:59:08;;;;;;;93.82;44.45;;;;;;;26.75;27.57;91775.69;4994485;28;20520;-64
2022/03/28 07:01:34;;;;;;;113.07;40.50;;;;;;;24.62;30.20;91767.03;4994556;28;20403;-64
2022/03/28 07:03:59;;;;;;;88.35;45.45;;;;;;;22.68;32.40;91772.94;4994677;28;20073;-64
2022/03/28 07:06:25;;;;;;;96.57;47.33;;;;;;;23.46;31.04;91766.03;4994414;28;20113;-64
2022/03/28 07:08:51;;;;;;;79.60;41.95;;;;;;;24.53;29.63;91766.56;4992659;28;20050;-63
2022/03/28 07:11:17;;;;;;;51.15;25.75;;;;;;;22.17;31.26;91770.50;4994218;28;20562;-63
2022/03/28 07:13:42;;;;;;;84.97;28.65;;;;;;;22.36;31.12;91775.09;4994282;28;20105;-64
2022/03/28 07:16:08;;;;;;;60.55;30.83;;;;;;;23.11;30.30;91770.94;4994105;28;20026;-64
2022/03/28 07:18:34;;;;;;;295.02;46.40;;;;;;;22.91;30.90;91768.34;4993918;28;20034;-64
2022/03/28 07:20:59;;;;;;;37.83;14.40;;;;;;;20.87;33.71;91759.22;4993886;28;20416;-64
2022/03/28 07:23:25;;;;;;;67.07;17.05;;;;;;;20.56;34.91;91774.31;4993929;28;20034;-64
2022/03/28 07:25:50;;;;;;;33.65;13.95;;;;;;;18.99;36.94;91773.78;4993856;28;20037;-64
2022/03/28 07:28:17;;;;;;;73.18;25.98;;;;;;;20.25;35.43;91769.66;4993484;28;20026;-66
2022/03/28 07:30:42;;;;;;;61.67;27.48;;;;;;;23.24;32.00;91758.75;4993757;28;20049;-65
2022/03/28 07:33:08;;;;;;;110.70;25.73;;;;;;;24.24;29.77;91771.66;4993502;28;20504;-65
2022/03/28 07:35:35;;;;;;;48.75;26.77;;;;;;;24.42;29.77;91771.88;4993466;28;20019;-65
2022/03/28 07:38:02;;;;;;;63.00;20.77;;;;;;;25.80;28.69;91771.44;4993646;28;20052;-65
2022/03/28 07:40:28;;;;;;;29.35;19.13;;;;;;;24.41;29.93;91776.53;4993384;28;20088;-65
2022/03/28 07:42:54;;;;;;;37.33;15.05;;;;;;;25.98;28.38;91762.19;4992188;28;20038;-66
2022/03/28 07:45:20;;;;;;;76.45;14.68;;;;;;;25.83;28.66;91766.00;4993394;28;20092;-66
2022/03/28 07:47:46;;;;;;;24.75;15.02;;;;;;;24.86;29.17;91773.84;4993409;28;20053;-64
2022/03/28 07:50:12;;;;;;;100.05;19.33;;;;;;;26.03;27.38;91773.88;4993159;28;20026;-65
2022/03/28 07:52:39;;;;;;;58.08;28.23;;;;;;;26.67;27.45;91760.44;4992874;28;20491;-65
2022/03/28 07:55:06;;;;;;;51.97;17.83;;;;;;;26.65;26.69;91762.78;4993283;28;20026;-64
2022/03/28 07:57:33;;;;;;;47.10;25.10;;;;;;;26.62;26.69;91763.56;4993382;28;20042;-64
2022/03/28 07:59:58;;;;;;;22.85;11.55;;;;;;;24.55;28.14;91765.03;4993361;28;20056;-66
2022/03/28 08:02:24;;;;;;;46.80;11.40;;;;;;;23.36;29.25;91766.69;4993087;28;20042;-65
2022/03/28 08:04:49;;;;;;;42.00;18.17;;;;;;;25.85;28.35;91763.66;4993062;28;20397;-65
2022/03/28 08:07:15;;;;;;;36.90;20.67;;;;;;;29.41;23.94;91768.59;4993156;28;20061;-65
2022/03/28 08:09:41;;;;;;;75.68;21.25;;;;;;;28.99;23.84;91766.97;4992702;28;20050;-65
2022/03/28 08:12:07;;;;;;;68.13;22.48;;;;;;;26.22;26.43;91768.13;4992946;28;20057;-65
2022/03/28 08:14:34;;;;;;;26.65;12.80;;;;;;;26.90;25.90;91757.38;4992752;28;20030;-66
2022/03/28 08:17:00;;;;;;;63.30;12.85;;;;;;;27.84;25.32;91743.25;4992776;28;20029;-65
2022/03/28 08:19:25;;;;;;;51.40;12.05;;;;;;;26.94;25.40;91755.41;4992472;28;20089;-64
2022/03/28 08:21:51;;;;;;;31.33;11.07;;;;;;;25.76;27.16;91757.81;4991421;28;20033;-65
2022/03/28 08:24:17;;;;;;;53.53;15.32;;;;;;;25.59;26.77;91755.75;4992546;28;20033;-65
2022/03/28 08:26:43;;;;;;;62.33;16.15;;;;;;;23.92;28.62;91751.50;4991355;28;20022;-65
2022/03/28 08:29:09;;;;;;;39.83;12.13;;;;;;;23.05;29.03;91750.72;4992603;28;20434;-65
2022/03/28 08:31:35;;;;;;;56.92;13.65;;;;;;;22.15;30.17;91740.28;4992564;28;20030;-65
2022/03/28 08:34:00;;;;;;;36.45;11.23;;;;;;;21.57;31.09;91742.97;4991199;28;20054;-65
2022/03/28 08:36:26;;;;;;;38.28;13.20;;;;;;;20.93;31.47;91747.78;4992469;28;20027;-66
2022/03/28 08:38:51;;;;;;;24.60;10.40;;;;;;;20.61;31.69;91743.53;4990948;28;20113;-65
2022/03/28 08:41:18;;;;;;;15.90;10.23;;;;;;;19.30;33.92;91736.19;4992307;28;20030;-65
2022/03/28 08:43:45;;;;;;;46.45;15.30;;;;;;;20.73;31.95;91735.34;4992293;28;20030;-66
2022/03/28 08:46:11;;;;;;;201.63;29.00;;;;;;;22.13;31.12;91726.31;4992337;28;20113;-65
2022/03/28 08:48:40;;;;;;;24.00;12.95;;;;;;;24.36;28.72;91722.50;4992198;28;20030;-65
2022/03/28 08:51:07;;;;;;;20.70;10.90;;;;;;;23.52;29.28;91721.13;4992194;28;20022;-64
2022/03/28 08:53:32;;;;;;;30.95;11.05;;;;;;;25.41;27.97;91719.44;4992347;28;20087;-64
2022/03/28 08:55:58;;;;;;;88.35;14.43;;;;;;;25.20;27.95;91722.81;4992270;28;20034;-65
2022/03/28 08:58:23;;;;;;;18.52;10.85;;;;;;;27.38;26.41;91708.59;4992088;28;20464;-65
2022/03/28 09:00:49;;;;;;;133.65;16.42;;;;;;;29.17;24.86;91714.75;4992181;28;20022;-65
2022/03/28 09:03:14;;;;;;;15.85;9.63;;;;;;;26.30;26.05;91698.75;4991538;28;20040;-65
2022/03/28 09:05:40;;;;;;;23.77;10.88;;;;;;;23.81;27.81;91705.16;4992133;28;20092;-64
2022/03/28 09:08:08;;;;;;;29.77;11.63;;;;;;;23.72;28.33;91710.13;4990745;28;20030;-65
2022/03/28 09:10:35;;;;;;;18.80;10.70;;;;;;;24.03;28.66;91704.25;4991888;28;20512;-65
2022/03/28 09:13:09;;;;;;;19.23;10.93;;;;;;;22.51;28.55;91700.22;4992025;28;20104;-63
2022/03/28 09:15:55;;;;;;;21.77;10.80;;;;;;;23.33;29.68;91691.34;4992192;28;20034;-65
2022/03/28 09:18:24;;;;;;;15.55;8.73;;;;;;;23.30;29.04;91692.09;4991647;28;20059;-64
2022/03/28 09:21:01;;;;;;;20.02;9.88;;;;;;;23.05;29.37;91688.28;4992030;28;20038;-64
2022/03/28 09:23:29;;;;;;;23.60;10.70;;;;;;;26.64;26.37;91693.00;4991842;28;20420;-65
2022/03/28 09:25:56;;;;;;;23.45;10.55;;;;;;;27.98;25.59;91692.03;4992103;28;20046;-65
2022/03/28 09:28:38;;;;;;;42.72;11.50;;;;;;;27.39;25.33;91689.06;4991655;28;20023;-65
2022/03/28 09:31:18;;;;;;;29.33;10.25;;;;;;;28.57;23.85;91688.59;4991763;28;20437;-65
2022/03/28 09:33:52;;;;;;;25.85;11.00;;;;;;;27.05;25.52;91686.00;4991769;28;20037;-64
2022/03/28 09:36:18;;;;;;;25.35;11.75;;;;;;;26.12;25.94;91667.94;4991598;28;20070;-64
2022/03/28 09:38:56;;;;;;;38.35;16.92;;;;;;;25.16;27.55;91679.22;4991619;28;20030;-64
2022/03/28 09:41:24;;;;;;;132.63;23.00;;;;;;;26.23;26.11;91668.75;4991584;28;20027;-65
2022/03/28 09:43:54;;;;;;;30.42;18.70;;;;;;;23.35;27.21;91661.13;4991916;28;20037;-65
2022/03/28 09:46:32;;;;;;;39.92;16.08;;;;;;;24.59;27.12;91673.31;4991613;28;20133;-65
2022/03/28 09:48:59;;;;;;;31.75;18.13;;;;;;;23.60;27.68;91673.88;4990049;28;20389;-64
2022/03/28 09:51:30;;;;;;;35.33;18.10;;;;;;;22.02;29.59;91660.25;4991469;28;20058;-65
2022/03/28 09:53:57;;;;;;;32.75;20.33;;;;;;;22.29;29.95;91659.22;4991495;28;20034;-64
2022/03/28 09:56:24;;;;;;;46.75;14.80;;;;;;;20.62;31.48;91656.66;4991455;28;20065;-65
2022/03/28 09:58:56;;;;;;;36.47;16.63;;;;;;;20.86;31.82;91652.19;4991328;28;20416;-65
2022/03/28 10:01:29;;;;;;;36.80;15.30;;;;;;;20.44;32.46;91658.19;4991320;28;20488;-65
2022/03/28 10:04:01;;;;;;;30.75;11.85;;;;;;;19.41;33.46;91656.34;4991487;28;20518;-65
2022/03/28 10:06:28;;;;;;;25.05;11.75;;;;;;;19.58;33.43;91649.09;4991206;28;20045;-64
2022/03/28 10:08:55;;;;;;;40.75;11.85;;;;;;;19.31;33.40;91651.41;4990899;28;20039;-64
2022/03/28 10:11:20;;;;;;;30.95;10.88;;;;;;;19.96;33.85;91635.00;4991241;28;20034;-65
2022/03/28 10:13:46;;;;;;;42.63;12.52;;;;;;;21.17;32.10;91629.63;4991722;28;20463;-64
2022/03/28 10:16:12;;;;;;;43.05;10.77;;;;;;;22.21;30.94;91630.41;4994947;28;20042;-64
2022/03/28 10:18:40;;;;;;;33.17;10.73;;;;;;;21.75;30.76;91627.66;4995009;28;20038;-63
2022/03/28 10:21:17;;;;;;;37.28;13.70;;;;;;;22.02;31.02;91611.47;4995102;28;20500;-64
2022/03/28 10:23:49;;;;;;;21.30;10.45;;;;;;;21.07;31.63;91614.75;4995033;28;20416;-64
2022/03/28 10:26:17;;;;;;;18.15;9.38;;;;;;;20.11;32.77;91601.78;4994850;28;20061;-64
2022/03/28 10:28:59;;;;;;;23.08;10.20;;;;;;;21.11;32.53;91614.81;4994760;28;20443;-64
2022/03/28 10:31:25;;;;;;;48.05;12.05;;;;;;;21.41;32.94;91604.19;4994955;28;20033;-64
2022/03/28 10:33:53;;;;;;;80.28;12.30;;;;;;;23.03;29.81;91590.91;4994928;28;20031;-64
2022/03/28 10:36:24;;;;;;;40.65;10.00;;;;;;;23.27;29.31;91598.59;4994772;28;20038;-65
2022/03/28 10:38:51;;;;;;;57.80;13.77;;;;;;;23.15;29.71;91590.69;4995047;28;20034;-64
2022/03/28 10:41:18;;;;;;;30.92;12.88;;;;;;;22.22;30.16;91595.94;4994663;28;20037;-64
2022/03/28 10:43:45;;;;;;;36.78;13.68;;;;;;;22.59;30.26;91593.44;4994713;28;20049;-66
2022/03/28 10:46:12;;;;;;;44.05;13.70;;;;;;;21.93;30.17;91581.91;4994532;28;20038;-66
2022/03/28 10:48:43;;;;;;;24.60;11.80;;;;;;;20.62;31.95;91589.06;4994516;28;20026;-65
2022/03/28 10:51:24;;;;;;;116.95;20.73;;;;;;;20.00;32.87;91590.72;4993069;28;20440;-65
2022/03/28 10:54:03;;;;;;;37.38;14.00;;;;;;;19.85;31.43;91580.72;4994522;28;20109;-65
2022/03/28 10:56:33;;;;;;;89.07;18.30;;;;;;;19.59;32.98;91575.06;4994702;28;20037;-65
2022/03/28 10:59:03;;;;;;;44.08;16.77;;;;;;;20.31;30.83;91570.22;4994242;28;20126;-65
2022/03/28 11:01:49;;;;;;;38.92;15.80;;;;;;;20.15;31.39;91556.72;4994254;28;20444;-64
2022/03/28 11:04:23;;;;;;;34.17;16.95;;;;;;;19.22;32.88;91564.44;4994354;28;20058;-64
2022/03/28 11:07:00;;;;;;;46.65;15.80;;;;;;;19.15;35.32;91562.34;4994363;28;20030;-64
2022/03/28 11:09:41;;;;;;;28.17;15.98;;;;;;;18.70;34.64;91553.78;4993846;28;20050;-65
2022/03/28 11:12:11;;;;;;;21.23;10.57;;;;;;;18.32;37.54;91543.44;4994088;28;20038;-64
2022/03/28 11:14:41;;;;;;;64.53;13.13;;;;;;;18.49;37.76;91545.88;4994100;28;20500;-65
2022/03/28 11:17:40;;;;;;;26.00;10.45;;;;;;;19.32;34.75;91546.97;4994111;28;20049;-65
2022/03/28 11:20:20;;;;;;;40.38;11.60;;;;;;;20.08;32.82;91539.59;4989966;28;20133;-65
2022/03/28 11:23:10;;;;;;;27.95;9.45;;;;;;;22.16;31.50;91533.16;4994221;28;20034;-65
2022/03/28 11:25:39;;;;;;;37.50;10.93;;;;;;;23.02;30.50;91535.88;4993218;28;20027;-64